sensor_id;sensor_type;location;lat;lon;timestamp;temperature;humidity
29281;DHT22;25048;49.590;11.026;2022-12-01T00:01:19;2.80;99.90
29281;DHT22;25048;49.590;11.026;2022-12-01T00:03:47;2.80;99.90
29281;DHT22;25048;49.590;11.026;2022-12-01T00:06:19;2.80;99.90
29281;DHT22;25048;49.590;11.026;2022-12-01T00:08:49;2.80;99.90
29281;DHT22;25048;49.590;11.026;2022-12-01T00:11:37;2.80;99.90
29281;DHT22;25048;49.590;11.026;2022-12-01T00:14:05;2.90;99.90
29281;DHT22;25048;49.590;11.026;2022-12-01T00:16:33;2.90;99.90
29281;DHT22;25048;49.590;11.026;2022-12-01T00:19:00;2.80;99.90
29281;DHT22;25048;49.590;11.026;2022-12-01T00:21:28;2.90;99.90
29281;DHT22;25048;49.590;11.026;2022-12-01T00:23:57;2.90;99.90
29281;DHT22;25048;49.590;11.026;2022-12-01T00:26:26;2.90;99.90
29281;DHT22;25048;49.590;11.026;2022-12-01T00:28:56;2.90;99.90
29281;DHT22;25048;49.590;11.026;2022-12-01T00:31:24;2.90;99.90
29281;DHT22;25048;49.590;11.026;2022-12-01T00:33:52;3.00;99.90
29281;DHT22;25048;49.590;11.026;2022-12-01T00:36:20;3.00;99.90
29281;DHT22;25048;49.590;11.026;2022-12-01T00:38:53;3.00;99.90
29281;DHT22;25048;49.590;11.026;2022-12-01T00:41:22;3.00;99.90
29281;DHT22;25048;49.590;11.026;2022-12-01T00:43:50;3.00;99.90
29281;DHT22;25048;49.590;11.026;2022-12-01T00:46:18;3.00;99.90
29281;DHT22;25048;49.590;11.026;2022-12-01T00:48:45;3.00;99.90
29281;DHT22;25048;49.590;11.026;2022-12-01T00:51:13;3.00;99.90
29281;DHT22;25048;49.590;11.026;2022-12-01T00:53:40;3.00;99.90
29281;DHT22;25048;49.590;11.026;2022-12-01T00:56:08;3.00;99.90
29281;DHT22;25048;49.590;11.026;2022-12-01T00:58:35;3.00;99.90
29281;DHT22;25048;49.590;11.026;2022-12-01T01:01:03;3.00;99.90
29281;DHT22;25048;49.590;11.026;2022-12-01T01:03:32;3.00;99.90
29281;DHT22;25048;49.590;11.026;2022-12-01T01:06:05;3.00;99.90
29281;DHT22;25048;49.590;11.026;2022-12-01T01:08:32;2.90;99.90
29281;DHT22;25048;49.590;11.026;2022-12-01T01:11:00;3.00;99.90
29281;DHT22;25048;49.590;11.026;2022-12-01T01:13:28;3.00;99.90
29281;DHT22;25048;49.590;11.026;2022-12-01T01:16:07;3.00;99.90
29281;DHT22;25048;49.590;11.026;2022-12-01T01:18:35;2.90;99.90
29281;DHT22;25048;49.590;11.026;2022-12-01T01:21:11;2.90;99.90
29281;DHT22;25048;49.590;11.026;2022-12-01T01:23:34;2.90;99.90
29281;DHT22;25048;49.590;11.026;2022-12-01T01:26:14;2.90;99.90
29281;DHT22;25048;49.590;11.026;2022-12-01T01:28:37;3.00;99.90
29281;DHT22;25048;49.590;11.026;2022-12-01T01:31:08;3.00;99.90
29281;DHT22;25048;49.590;11.026;2022-12-01T01:33:36;3.00;99.90
29281;DHT22;25048;49.590;11.026;2022-12-01T01:36:04;3.00;99.90
29281;DHT22;25048;49.590;11.026;2022-12-01T01:38:33;3.10;99.90
29281;DHT22;25048;49.590;11.026;2022-12-01T01:41:00;3.10;99.90
29281;DHT22;25048;49.590;11.026;2022-12-01T01:46:16;3.10;99.90
29281;DHT22;25048;49.590;11.026;2022-12-01T01:48:47;3.00;99.90
29281;DHT22;25048;49.590;11.026;2022-12-01T01:51:18;3.00;99.90
29281;DHT22;25048;49.590;11.026;2022-12-01T01:53:45;3.00;99.90
29281;DHT22;25048;49.590;11.026;2022-12-01T01:56:14;3.00;99.90
29281;DHT22;25048;49.590;11.026;2022-12-01T01:58:41;3.00;99.90
29281;DHT22;25048;49.590;11.026;2022-12-01T02:01:10;3.00;99.90
29281;DHT22;25048;49.590;11.026;2022-12-01T02:03:39;2.90;99.90
29281;DHT22;25048;49.590;11.026;2022-12-01T02:06:09;2.90;99.90
29281;DHT22;25048;49.590;11.026;2022-12-01T02:08:37;3.00;99.90
29281;DHT22;25048;49.590;11.026;2022-12-01T02:11:26;3.00;99.90
29281;DHT22;25048;49.590;11.026;2022-12-01T02:14:17;3.00;99.90
29281;DHT22;25048;49.590;11.026;2022-12-01T02:16:48;3.00;99.90
29281;DHT22;25048;49.590;11.026;2022-12-01T02:19:40;3.00;99.90
29281;DHT22;25048;49.590;11.026;2022-12-01T02:22:28;3.00;99.90
29281;DHT22;25048;49.590;11.026;2022-12-01T02:25:10;2.90;99.90
29281;DHT22;25048;49.590;11.026;2022-12-01T02:27:42;3.00;99.90
29281;DHT22;25048;49.590;11.026;2022-12-01T02:30:11;3.00;99.90
29281;DHT22;25048;49.590;11.026;2022-12-01T02:33:01;2.90;99.90
29281;DHT22;25048;49.590;11.026;2022-12-01T02:38:25;2.90;99.90
29281;DHT22;25048;49.590;11.026;2022-12-01T02:41:04;2.90;99.90
29281;DHT22;25048;49.590;11.026;2022-12-01T02:43:32;2.90;99.90
29281;DHT22;25048;49.590;11.026;2022-12-01T02:46:04;2.90;99.90
29281;DHT22;25048;49.590;11.026;2022-12-01T02:48:33;2.90;99.90
29281;DHT22;25048;49.590;11.026;2022-12-01T02:51:08;2.90;99.90
29281;DHT22;25048;49.590;11.026;2022-12-01T02:53:31;2.90;99.90
29281;DHT22;25048;49.590;11.026;2022-12-01T02:55:59;2.90;99.90
29281;DHT22;25048;49.590;11.026;2022-12-01T02:58:26;2.90;99.90
29281;DHT22;25048;49.590;11.026;2022-12-01T03:01:01;2.90;99.90
29281;DHT22;25048;49.590;11.026;2022-12-01T03:03:40;2.90;99.90
29281;DHT22;25048;49.590;11.026;2022-12-01T03:09:07;2.90;99.90
29281;DHT22;25048;49.590;11.026;2022-12-01T03:11:42;2.90;99.90
29281;DHT22;25048;49.590;11.026;2022-12-01T03:16:50;2.90;99.90
29281;DHT22;25048;49.590;11.026;2022-12-01T03:19:28;2.90;99.90
29281;DHT22;25048;49.590;11.026;2022-12-01T03:22:12;2.90;99.90
29281;DHT22;25048;49.590;11.026;2022-12-01T03:24:42;2.90;99.90
29281;DHT22;25048;49.590;11.026;2022-12-01T03:27:12;2.90;99.90
29281;DHT22;25048;49.590;11.026;2022-12-01T03:29:46;2.90;99.90
29281;DHT22;25048;49.590;11.026;2022-12-01T03:32:24;2.90;99.90
29281;DHT22;25048;49.590;11.026;2022-12-01T03:34:57;2.90;99.90
29281;DHT22;25048;49.590;11.026;2022-12-01T03:40:07;2.90;99.90
29281;DHT22;25048;49.590;11.026;2022-12-01T03:42:42;2.90;99.90
29281;DHT22;25048;49.590;11.026;2022-12-01T03:45:08;2.90;99.90
29281;DHT22;25048;49.590;11.026;2022-12-01T03:47:37;2.90;99.90
29281;DHT22;25048;49.590;11.026;2022-12-01T03:50:07;2.90;99.90
29281;DHT22;25048;49.590;11.026;2022-12-01T03:55:22;2.90;99.90
29281;DHT22;25048;49.590;11.026;2022-12-01T03:57:56;2.90;99.90
29281;DHT22;25048;49.590;11.026;2022-12-01T04:00:24;2.90;99.90
29281;DHT22;25048;49.590;11.026;2022-12-01T04:02:56;2.90;99.90
29281;DHT22;25048;49.590;11.026;2022-12-01T04:05:25;2.90;99.90
29281;DHT22;25048;49.590;11.026;2022-12-01T04:07:53;2.90;99.90
29281;DHT22;25048;49.590;11.026;2022-12-01T04:10:21;2.90;99.90
29281;DHT22;25048;49.590;11.026;2022-12-01T04:12:49;2.90;99.90
29281;DHT22;25048;49.590;11.026;2022-12-01T04:15:18;2.90;99.90
29281;DHT22;25048;49.590;11.026;2022-12-01T04:17:46;2.90;99.90
29281;DHT22;25048;49.590;11.026;2022-12-01T04:20:14;2.90;99.90
29281;DHT22;25048;49.590;11.026;2022-12-01T04:22:42;2.90;99.90
29281;DHT22;25048;49.590;11.026;2022-12-01T04:25:10;2.90;99.90
29281;DHT22;25048;49.590;11.026;2022-12-01T04:27:38;2.90;99.90
29281;DHT22;25048;49.590;11.026;2022-12-01T04:30:06;2.90;99.90
29281;DHT22;25048;49.590;11.026;2022-12-01T04:32:39;2.90;99.90
29281;DHT22;25048;49.590;11.026;2022-12-01T04:35:08;2.90;99.90
29281;DHT22;25048;49.590;11.026;2022-12-01T04:37:36;2.90;99.90
29281;DHT22;25048;49.590;11.026;2022-12-01T04:40:04;2.90;99.90
29281;DHT22;25048;49.590;11.026;2022-12-01T04:42:32;2.90;99.90
29281;DHT22;25048;49.590;11.026;2022-12-01T04:44:59;2.90;99.90
29281;DHT22;25048;49.590;11.026;2022-12-01T04:47:27;2.90;99.90
29281;DHT22;25048;49.590;11.026;2022-12-01T04:49:54;2.90;99.90
29281;DHT22;25048;49.590;11.026;2022-12-01T04:52:22;2.90;99.90
29281;DHT22;25048;49.590;11.026;2022-12-01T04:54:49;2.90;99.90
29281;DHT22;25048;49.590;11.026;2022-12-01T04:57:17;2.90;99.90
29281;DHT22;25048;49.590;11.026;2022-12-01T04:59:44;2.90;99.90
29281;DHT22;25048;49.590;11.026;2022-12-01T05:02:12;2.80;99.90
29281;DHT22;25048;49.590;11.026;2022-12-01T05:04:39;2.80;99.90
29281;DHT22;25048;49.590;11.026;2022-12-01T05:07:07;2.80;99.90
29281;DHT22;25048;49.590;11.026;2022-12-01T05:09:35;2.80;99.90
29281;DHT22;25048;49.590;11.026;2022-12-01T05:12:02;2.80;99.90
29281;DHT22;25048;49.590;11.026;2022-12-01T05:14:30;2.80;99.90
29281;DHT22;25048;49.590;11.026;2022-12-01T05:16:57;2.80;99.90
29281;DHT22;25048;49.590;11.026;2022-12-01T05:19:26;2.80;99.90
29281;DHT22;25048;49.590;11.026;2022-12-01T05:22:11;2.80;99.90
29281;DHT22;25048;49.590;11.026;2022-12-01T05:24:39;2.80;99.90
29281;DHT22;25048;49.590;11.026;2022-12-01T05:27:06;2.80;99.90
29281;DHT22;25048;49.590;11.026;2022-12-01T05:29:34;2.90;99.90
29281;DHT22;25048;49.590;11.026;2022-12-01T05:32:01;2.90;99.90
29281;DHT22;25048;49.590;11.026;2022-12-01T05:34:29;2.90;99.90
29281;DHT22;25048;49.590;11.026;2022-12-01T05:36:57;2.90;99.90
29281;DHT22;25048;49.590;11.026;2022-12-01T05:39:24;2.90;99.90
29281;DHT22;25048;49.590;11.026;2022-12-01T05:41:52;2.90;99.90
29281;DHT22;25048;49.590;11.026;2022-12-01T05:44:19;2.90;99.90
29281;DHT22;25048;49.590;11.026;2022-12-01T05:46:47;2.90;99.90
29281;DHT22;25048;49.590;11.026;2022-12-01T05:49:14;2.90;99.90
29281;DHT22;25048;49.590;11.026;2022-12-01T05:51:42;2.90;99.90
29281;DHT22;25048;49.590;11.026;2022-12-01T05:54:10;3.00;99.90
29281;DHT22;25048;49.590;11.026;2022-12-01T05:56:37;3.00;99.90
29281;DHT22;25048;49.590;11.026;2022-12-01T05:59:05;3.10;99.90
29281;DHT22;25048;49.590;11.026;2022-12-01T06:01:32;3.10;99.90
29281;DHT22;25048;49.590;11.026;2022-12-01T06:04:00;3.10;99.90
29281;DHT22;25048;49.590;11.026;2022-12-01T06:06:27;3.10;99.90
29281;DHT22;25048;49.590;11.026;2022-12-01T06:08:55;3.00;99.90
29281;DHT22;25048;49.590;11.026;2022-12-01T06:11:22;3.00;99.90
29281;DHT22;25048;49.590;11.026;2022-12-01T06:13:50;3.00;99.90
29281;DHT22;25048;49.590;11.026;2022-12-01T06:16:17;3.00;99.90
29281;DHT22;25048;49.590;11.026;2022-12-01T06:18:45;2.90;99.90
29281;DHT22;25048;49.590;11.026;2022-12-01T06:21:12;2.70;99.90
29281;DHT22;25048;49.590;11.026;2022-12-01T06:23:40;2.60;99.90
29281;DHT22;25048;49.590;11.026;2022-12-01T06:26:07;2.60;99.90
29281;DHT22;25048;49.590;11.026;2022-12-01T06:28:35;2.50;99.90
29281;DHT22;25048;49.590;11.026;2022-12-01T06:31:02;2.60;99.90
29281;DHT22;25048;49.590;11.026;2022-12-01T06:33:30;2.60;99.90
29281;DHT22;25048;49.590;11.026;2022-12-01T06:36:03;2.60;99.90
29281;DHT22;25048;49.590;11.026;2022-12-01T06:38:33;2.70;99.90
29281;DHT22;25048;49.590;11.026;2022-12-01T06:41:00;2.80;99.90
29281;DHT22;25048;49.590;11.026;2022-12-01T06:43:29;2.80;99.90
29281;DHT22;25048;49.590;11.026;2022-12-01T06:45:56;2.90;99.90
29281;DHT22;25048;49.590;11.026;2022-12-01T06:48:24;2.90;99.90
29281;DHT22;25048;49.590;11.026;2022-12-01T06:50:51;3.00;99.90
29281;DHT22;25048;49.590;11.026;2022-12-01T06:53:20;3.00;99.90
29281;DHT22;25048;49.590;11.026;2022-12-01T06:55:48;3.00;99.90
29281;DHT22;25048;49.590;11.026;2022-12-01T06:58:15;3.10;99.90
29281;DHT22;25048;49.590;11.026;2022-12-01T07:00:44;3.10;99.90
29281;DHT22;25048;49.590;11.026;2022-12-01T07:03:11;3.20;99.90
29281;DHT22;25048;49.590;11.026;2022-12-01T07:05:39;3.20;99.90
29281;DHT22;25048;49.590;11.026;2022-12-01T07:08:06;3.20;99.90
29281;DHT22;25048;49.590;11.026;2022-12-01T07:10:34;3.20;99.90
29281;DHT22;25048;49.590;11.026;2022-12-01T07:13:01;3.20;99.90
29281;DHT22;25048;49.590;11.026;2022-12-01T07:15:29;3.10;99.90
29281;DHT22;25048;49.590;11.026;2022-12-01T07:17:56;3.10;99.90
29281;DHT22;25048;49.590;11.026;2022-12-01T07:20:24;3.10;99.90
29281;DHT22;25048;49.590;11.026;2022-12-01T07:22:53;3.10;99.90
29281;DHT22;25048;49.590;11.026;2022-12-01T07:25:20;3.10;99.90
29281;DHT22;25048;49.590;11.026;2022-12-01T07:27:48;3.10;99.90
29281;DHT22;25048;49.590;11.026;2022-12-01T07:30:16;3.20;99.90
29281;DHT22;25048;49.590;11.026;2022-12-01T07:32:43;3.20;99.90
29281;DHT22;25048;49.590;11.026;2022-12-01T07:35:11;3.20;99.90
29281;DHT22;25048;49.590;11.026;2022-12-01T07:37:38;3.30;99.90
29281;DHT22;25048;49.590;11.026;2022-12-01T07:40:06;3.20;99.90
29281;DHT22;25048;49.590;11.026;2022-12-01T07:42:35;3.30;99.90
29281;DHT22;25048;49.590;11.026;2022-12-01T07:45:03;3.30;99.90
29281;DHT22;25048;49.590;11.026;2022-12-01T07:47:30;3.40;99.90
29281;DHT22;25048;49.590;11.026;2022-12-01T07:49:58;3.40;99.90
29281;DHT22;25048;49.590;11.026;2022-12-01T07:52:25;3.40;99.90
29281;DHT22;25048;49.590;11.026;2022-12-01T07:54:53;3.40;99.90
29281;DHT22;25048;49.590;11.026;2022-12-01T07:57:20;3.40;99.90
29281;DHT22;25048;49.590;11.026;2022-12-01T07:59:49;3.40;99.90
29281;DHT22;25048;49.590;11.026;2022-12-01T08:02:18;3.50;99.90
29281;DHT22;25048;49.590;11.026;2022-12-01T08:04:45;3.50;99.90
29281;DHT22;25048;49.590;11.026;2022-12-01T08:07:13;3.50;99.90
29281;DHT22;25048;49.590;11.026;2022-12-01T08:09:40;3.50;99.90
29281;DHT22;25048;49.590;11.026;2022-12-01T08:12:10;3.50;99.90
29281;DHT22;25048;49.590;11.026;2022-12-01T08:14:37;3.50;99.90
29281;DHT22;25048;49.590;11.026;2022-12-01T08:17:05;3.50;99.90
29281;DHT22;25048;49.590;11.026;2022-12-01T08:19:32;3.60;99.90
29281;DHT22;25048;49.590;11.026;2022-12-01T08:22:00;3.70;99.90
29281;DHT22;25048;49.590;11.026;2022-12-01T08:24:27;3.70;99.90
29281;DHT22;25048;49.590;11.026;2022-12-01T08:26:55;3.70;99.90
29281;DHT22;25048;49.590;11.026;2022-12-01T08:29:22;3.80;99.90
29281;DHT22;25048;49.590;11.026;2022-12-01T08:31:50;3.80;99.90
29281;DHT22;25048;49.590;11.026;2022-12-01T08:34:17;3.80;99.90
29281;DHT22;25048;49.590;11.026;2022-12-01T08:36:45;3.70;99.90
29281;DHT22;25048;49.590;11.026;2022-12-01T08:39:12;3.70;99.90
29281;DHT22;25048;49.590;11.026;2022-12-01T08:41:41;3.70;99.90
29281;DHT22;25048;49.590;11.026;2022-12-01T08:44:09;3.70;99.90
29281;DHT22;25048;49.590;11.026;2022-12-01T08:46:37;3.70;99.90
29281;DHT22;25048;49.590;11.026;2022-12-01T08:49:05;3.70;99.90
29281;DHT22;25048;49.590;11.026;2022-12-01T08:51:32;3.70;99.90
29281;DHT22;25048;49.590;11.026;2022-12-01T08:54:02;3.70;99.90
29281;DHT22;25048;49.590;11.026;2022-12-01T08:56:37;3.60;99.90
29281;DHT22;25048;49.590;11.026;2022-12-01T08:59:00;3.70;99.90
29281;DHT22;25048;49.590;11.026;2022-12-01T09:01:28;3.70;99.90
29281;DHT22;25048;49.590;11.026;2022-12-01T09:03:56;3.80;99.90
29281;DHT22;25048;49.590;11.026;2022-12-01T09:06:41;3.80;99.90
29281;DHT22;25048;49.590;11.026;2022-12-01T09:09:12;3.80;99.90
29281;DHT22;25048;49.590;11.026;2022-12-01T09:11:40;3.90;99.90
29281;DHT22;25048;49.590;11.026;2022-12-01T09:14:11;4.10;99.90
29281;DHT22;25048;49.590;11.026;2022-12-01T09:16:39;4.30;99.90
29281;DHT22;25048;49.590;11.026;2022-12-01T09:19:07;4.50;99.90
29281;DHT22;25048;49.590;11.026;2022-12-01T09:21:35;4.70;99.90
29281;DHT22;25048;49.590;11.026;2022-12-01T09:24:05;4.80;99.90
29281;DHT22;25048;49.590;11.026;2022-12-01T09:26:33;4.90;99.90
29281;DHT22;25048;49.590;11.026;2022-12-01T09:29:05;5.10;99.90
29281;DHT22;25048;49.590;11.026;2022-12-01T09:31:34;5.20;99.90
29281;DHT22;25048;49.590;11.026;2022-12-01T09:34:04;5.40;99.90
29281;DHT22;25048;49.590;11.026;2022-12-01T09:36:33;5.50;99.90
29281;DHT22;25048;49.590;11.026;2022-12-01T09:39:02;5.60;99.90
29281;DHT22;25048;49.590;11.026;2022-12-01T09:42:20;5.80;99.90
29281;DHT22;25048;49.590;11.026;2022-12-01T09:46:46;6.30;99.90
29281;DHT22;25048;49.590;11.026;2022-12-01T09:49:30;6.60;99.90
29281;DHT22;25048;49.590;11.026;2022-12-01T09:51:55;6.80;99.90
29281;DHT22;25048;49.590;11.026;2022-12-01T09:54:22;6.90;99.90
29281;DHT22;25048;49.590;11.026;2022-12-01T09:56:51;7.00;99.90
29281;DHT22;25048;49.590;11.026;2022-12-01T09:59:23;6.90;99.90
29281;DHT22;25048;49.590;11.026;2022-12-01T10:02:00;6.90;99.90
29281;DHT22;25048;49.590;11.026;2022-12-01T10:04:37;6.80;99.90
29281;DHT22;25048;49.590;11.026;2022-12-01T10:07:25;6.80;99.90
29281;DHT22;25048;49.590;11.026;2022-12-01T10:10:02;6.80;99.90
29281;DHT22;25048;49.590;11.026;2022-12-01T10:12:32;6.90;99.90
29281;DHT22;25048;49.590;11.026;2022-12-01T10:15:22;6.90;99.90
29281;DHT22;25048;49.590;11.026;2022-12-01T10:18:06;7.00;99.90
29281;DHT22;25048;49.590;11.026;2022-12-01T10:23:54;7.00;99.90
29281;DHT22;25048;49.590;11.026;2022-12-01T10:29:23;7.00;99.90
29281;DHT22;25048;49.590;11.026;2022-12-01T10:34:41;7.60;99.90
29281;DHT22;25048;49.590;11.026;2022-12-01T10:37:22;8.00;99.90
29281;DHT22;25048;49.590;11.026;2022-12-01T10:39:52;8.30;99.90
29281;DHT22;25048;49.590;11.026;2022-12-01T10:42:42;8.60;99.90
29281;DHT22;25048;49.590;11.026;2022-12-01T10:45:15;8.80;99.90
29281;DHT22;25048;49.590;11.026;2022-12-01T10:48:20;8.90;99.90
29281;DHT22;25048;49.590;11.026;2022-12-01T10:50:56;9.10;99.90
29281;DHT22;25048;49.590;11.026;2022-12-01T10:53:28;9.20;99.90
29281;DHT22;25048;49.590;11.026;2022-12-01T10:56:05;9.30;99.90
29281;DHT22;25048;49.590;11.026;2022-12-01T10:58:42;9.50;99.90
29281;DHT22;25048;49.590;11.026;2022-12-01T11:01:15;9.60;99.90
29281;DHT22;25048;49.590;11.026;2022-12-01T11:03:40;9.80;99.90
29281;DHT22;25048;49.590;11.026;2022-12-01T11:06:08;10.10;99.90
29281;DHT22;25048;49.590;11.026;2022-12-01T11:08:49;10.30;99.90
29281;DHT22;25048;49.590;11.026;2022-12-01T11:11:35;10.30;99.90
29281;DHT22;25048;49.590;11.026;2022-12-01T11:14:15;10.10;99.90
29281;DHT22;25048;49.590;11.026;2022-12-01T11:16:42;9.70;99.90
29281;DHT22;25048;49.590;11.026;2022-12-01T11:19:28;9.30;99.90
29281;DHT22;25048;49.590;11.026;2022-12-01T11:21:58;9.00;99.90
29281;DHT22;25048;49.590;11.026;2022-12-01T11:24:29;8.80;99.90
29281;DHT22;25048;49.590;11.026;2022-12-01T11:26:57;8.80;99.90
29281;DHT22;25048;49.590;11.026;2022-12-01T11:29:34;8.90;99.90
29281;DHT22;25048;49.590;11.026;2022-12-01T11:32:27;9.00;99.90
29281;DHT22;25048;49.590;11.026;2022-12-01T11:34:55;9.10;99.90
29281;DHT22;25048;49.590;11.026;2022-12-01T11:37:26;9.20;99.90
29281;DHT22;25048;49.590;11.026;2022-12-01T11:39:53;9.40;99.90
29281;DHT22;25048;49.590;11.026;2022-12-01T11:42:27;9.50;99.90
29281;DHT22;25048;49.590;11.026;2022-12-01T11:45:02;9.70;99.90
29281;DHT22;25048;49.590;11.026;2022-12-01T11:47:26;9.90;99.90
29281;DHT22;25048;49.590;11.026;2022-12-01T11:49:59;10.00;99.90
29281;DHT22;25048;49.590;11.026;2022-12-01T11:52:30;10.10;99.90
29281;DHT22;25048;49.590;11.026;2022-12-01T11:57:43;10.00;99.90
29281;DHT22;25048;49.590;11.026;2022-12-01T12:00:18;9.90;99.90
29281;DHT22;25048;49.590;11.026;2022-12-01T12:05:47;9.80;99.90
29281;DHT22;25048;49.590;11.026;2022-12-01T12:08:45;9.90;99.90
29281;DHT22;25048;49.590;11.026;2022-12-01T12:14:22;10.20;99.90
29281;DHT22;25048;49.590;11.026;2022-12-01T12:22:32;9.90;99.90
29281;DHT22;25048;49.590;11.026;2022-12-01T12:30:33;9.50;99.90
29281;DHT22;25048;49.590;11.026;2022-12-01T12:33:18;9.50;99.90
29281;DHT22;25048;49.590;11.026;2022-12-01T12:41:03;9.40;99.90
29281;DHT22;25048;49.590;11.026;2022-12-01T12:46:44;9.20;99.90
29281;DHT22;25048;49.590;11.026;2022-12-01T12:49:11;9.10;99.90
29281;DHT22;25048;49.590;11.026;2022-12-01T12:51:40;9.10;99.90
29281;DHT22;25048;49.590;11.026;2022-12-01T12:56:43;8.90;99.90
29281;DHT22;25048;49.590;11.026;2022-12-01T12:59:17;9.00;99.90
29281;DHT22;25048;49.590;11.026;2022-12-01T13:01:54;9.10;99.90
29281;DHT22;25048;49.590;11.026;2022-12-01T13:04:33;9.40;99.90
29281;DHT22;25048;49.590;11.026;2022-12-01T13:07:15;9.40;99.90
29281;DHT22;25048;49.590;11.026;2022-12-01T13:09:41;9.20;99.90
29281;DHT22;25048;49.590;11.026;2022-12-01T13:12:26;9.10;99.90
29281;DHT22;25048;49.590;11.026;2022-12-01T13:14:48;8.90;99.90
29281;DHT22;25048;49.590;11.026;2022-12-01T13:17:24;8.80;99.90
29281;DHT22;25048;49.590;11.026;2022-12-01T13:19:50;8.70;99.90
29281;DHT22;25048;49.590;11.026;2022-12-01T13:22:20;8.60;99.90
29281;DHT22;25048;49.590;11.026;2022-12-01T13:24:50;8.50;99.90
29281;DHT22;25048;49.590;11.026;2022-12-01T13:27:20;8.50;99.90
29281;DHT22;25048;49.590;11.026;2022-12-01T13:29:49;8.50;99.90
29281;DHT22;25048;49.590;11.026;2022-12-01T13:32:38;8.40;99.90
29281;DHT22;25048;49.590;11.026;2022-12-01T13:37:47;8.30;99.90
29281;DHT22;25048;49.590;11.026;2022-12-01T13:40:29;8.10;99.90
29281;DHT22;25048;49.590;11.026;2022-12-01T13:42:59;8.00;99.90
29281;DHT22;25048;49.590;11.026;2022-12-01T13:45:33;7.90;99.90
29281;DHT22;25048;49.590;11.026;2022-12-01T13:48:03;7.80;99.90
29281;DHT22;25048;49.590;11.026;2022-12-01T13:55:57;7.70;99.90
29281;DHT22;25048;49.590;11.026;2022-12-01T14:09:38;9.30;99.90
29281;DHT22;25048;49.590;11.026;2022-12-01T14:12:21;10.10;99.90
29281;DHT22;25048;49.590;11.026;2022-12-01T14:15:00;10.90;99.90
29281;DHT22;25048;49.590;11.026;2022-12-01T14:17:31;11.20;99.90
29281;DHT22;25048;49.590;11.026;2022-12-01T14:20:19;11.50;99.90
29281;DHT22;25048;49.590;11.026;2022-12-01T14:23:03;11.80;99.90
29281;DHT22;25048;49.590;11.026;2022-12-01T14:25:31;12.00;99.90
29281;DHT22;25048;49.590;11.026;2022-12-01T14:28:03;12.20;99.90
29281;DHT22;25048;49.590;11.026;2022-12-01T14:36:27;11.60;99.90
29281;DHT22;25048;49.590;11.026;2022-12-01T14:39:03;10.90;99.90
29281;DHT22;25048;49.590;11.026;2022-12-01T14:41:39;10.20;99.90
29281;DHT22;25048;49.590;11.026;2022-12-01T14:47:06;9.20;99.90
29281;DHT22;25048;49.590;11.026;2022-12-01T14:52:40;8.50;99.90
29281;DHT22;25048;49.590;11.026;2022-12-01T14:55:03;8.10;99.90
29281;DHT22;25048;49.590;11.026;2022-12-01T14:57:50;7.90;99.90
29281;DHT22;25048;49.590;11.026;2022-12-01T15:00:23;7.70;99.90
29281;DHT22;25048;49.590;11.026;2022-12-01T15:03:12;7.50;99.90
29281;DHT22;25048;49.590;11.026;2022-12-01T15:05:42;7.30;99.90
29281;DHT22;25048;49.590;11.026;2022-12-01T15:08:15;7.20;99.90
29281;DHT22;25048;49.590;11.026;2022-12-01T15:10:55;7.10;99.90
29281;DHT22;25048;49.590;11.026;2022-12-01T15:13:31;7.00;99.90
29281;DHT22;25048;49.590;11.026;2022-12-01T15:16:01;6.90;99.90
29281;DHT22;25048;49.590;11.026;2022-12-01T15:18:34;6.90;99.90
29281;DHT22;25048;49.590;11.026;2022-12-01T15:21:27;6.80;99.90
29281;DHT22;25048;49.590;11.026;2022-12-01T15:24:22;6.70;99.90
29281;DHT22;25048;49.590;11.026;2022-12-01T15:26:52;6.70;99.90
29281;DHT22;25048;49.590;11.026;2022-12-01T15:29:25;6.60;99.90
29281;DHT22;25048;49.590;11.026;2022-12-01T15:31:58;6.60;99.90
29281;DHT22;25048;49.590;11.026;2022-12-01T15:34:40;6.50;99.90
29281;DHT22;25048;49.590;11.026;2022-12-01T15:37:06;6.50;99.90
29281;DHT22;25048;49.590;11.026;2022-12-01T15:39:36;6.40;99.90
29281;DHT22;25048;49.590;11.026;2022-12-01T15:42:04;6.30;99.90
29281;DHT22;25048;49.590;11.026;2022-12-01T15:44:34;6.30;99.90
29281;DHT22;25048;49.590;11.026;2022-12-01T15:50:24;6.20;99.90
29281;DHT22;25048;49.590;11.026;2022-12-01T15:52:45;6.10;99.90
29281;DHT22;25048;49.590;11.026;2022-12-01T15:55:19;6.10;99.90
29281;DHT22;25048;49.590;11.026;2022-12-01T15:57:44;6.00;99.90
29281;DHT22;25048;49.590;11.026;2022-12-01T16:00:17;6.10;99.90
29281;DHT22;25048;49.590;11.026;2022-12-01T16:02:50;6.10;99.90
29281;DHT22;25048;49.590;11.026;2022-12-01T16:07:52;6.00;99.90
29281;DHT22;25048;49.590;11.026;2022-12-01T16:15:59;5.90;99.90
29281;DHT22;25048;49.590;11.026;2022-12-01T16:18:31;5.80;99.90
29281;DHT22;25048;49.590;11.026;2022-12-01T16:21:04;5.80;99.90
29281;DHT22;25048;49.590;11.026;2022-12-01T16:23:32;5.70;99.90
29281;DHT22;25048;49.590;11.026;2022-12-01T16:26:00;5.70;99.90
29281;DHT22;25048;49.590;11.026;2022-12-01T16:28:33;5.70;99.90
29281;DHT22;25048;49.590;11.026;2022-12-01T16:31:02;5.60;99.90
29281;DHT22;25048;49.590;11.026;2022-12-01T16:33:34;5.60;99.90
29281;DHT22;25048;49.590;11.026;2022-12-01T16:36:02;5.50;99.90
29281;DHT22;25048;49.590;11.026;2022-12-01T16:38:30;5.40;99.90
29281;DHT22;25048;49.590;11.026;2022-12-01T16:41:01;5.40;99.90
29281;DHT22;25048;49.590;11.026;2022-12-01T16:43:30;5.30;99.90
29281;DHT22;25048;49.590;11.026;2022-12-01T16:46:00;5.30;99.90
29281;DHT22;25048;49.590;11.026;2022-12-01T16:48:29;5.30;99.90
29281;DHT22;25048;49.590;11.026;2022-12-01T16:51:00;5.30;99.90
29281;DHT22;25048;49.590;11.026;2022-12-01T16:53:27;5.30;99.90
29281;DHT22;25048;49.590;11.026;2022-12-01T16:55:56;5.30;99.90
29281;DHT22;25048;49.590;11.026;2022-12-01T16:58:25;5.30;99.90
29281;DHT22;25048;49.590;11.026;2022-12-01T17:00:53;5.20;99.90
29281;DHT22;25048;49.590;11.026;2022-12-01T17:03:23;5.20;99.90
29281;DHT22;25048;49.590;11.026;2022-12-01T17:05:52;5.20;99.90
29281;DHT22;25048;49.590;11.026;2022-12-01T17:08:20;5.20;99.90
29281;DHT22;25048;49.590;11.026;2022-12-01T17:10:49;5.20;99.90
29281;DHT22;25048;49.590;11.026;2022-12-01T17:13:19;5.20;99.90
29281;DHT22;25048;49.590;11.026;2022-12-01T17:15:50;5.20;99.90
29281;DHT22;25048;49.590;11.026;2022-12-01T17:18:19;5.20;99.90
29281;DHT22;25048;49.590;11.026;2022-12-01T17:20:59;5.20;99.90
29281;DHT22;25048;49.590;11.026;2022-12-01T17:23:27;5.20;99.90
29281;DHT22;25048;49.590;11.026;2022-12-01T17:25:54;5.20;99.90
29281;DHT22;25048;49.590;11.026;2022-12-01T17:28:22;5.20;99.90
29281;DHT22;25048;49.590;11.026;2022-12-01T17:30:49;5.20;99.90
29281;DHT22;25048;49.590;11.026;2022-12-01T17:33:17;5.20;99.90
29281;DHT22;25048;49.590;11.026;2022-12-01T17:35:44;5.10;99.90